createdAt,value
2019-03-21T00:01:27.514Z,97.80
2019-03-21T00:04:00.659Z,97.50
2019-03-21T00:06:31.153Z,97.80
2019-03-21T00:09:01.777Z,97.70
2019-03-21T00:11:59.608Z,97.90
2019-03-21T00:15:05.809Z,98.20
2019-03-21T00:17:42.446Z,98.20
2019-03-21T00:20:14.963Z,98.00
2019-03-21T00:22:45.351Z,98.00
2019-03-21T00:25:18.455Z,97.90
2019-03-21T00:27:49.134Z,97.80
2019-03-21T00:30:20.967Z,98.00
2019-03-21T00:32:51.233Z,98.00
2019-03-21T00:35:21.597Z,98.30
2019-03-21T00:37:52.171Z,98.20
2019-03-21T00:40:28.499Z,97.90
2019-03-21T00:43:00.089Z,97.90
2019-03-21T00:45:30.627Z,97.60
2019-03-21T00:48:02.527Z,97.40
2019-03-21T00:50:32.830Z,97.50
2019-03-21T00:53:03.832Z,97.50
2019-03-21T00:55:35.161Z,97.50
2019-03-21T00:58:05.703Z,97.30
2019-03-21T01:00:39.500Z,97.50
2019-03-21T01:03:10.493Z,97.40
2019-03-21T01:05:41.295Z,97.40
2019-03-21T01:08:11.651Z,97.40
2019-03-21T01:10:43.551Z,97.50
2019-03-21T01:13:14.179Z,97.70
2019-03-21T01:15:44.746Z,97.40
2019-03-21T01:18:14.991Z,97.60
2019-03-21T01:20:46.646Z,98.10
2019-03-21T01:23:16.863Z,98.30
2019-03-21T01:25:51.423Z,98.70
2019-03-21T01:28:22.380Z,99.00
2019-03-21T01:30:52.529Z,99.20
2019-03-21T01:33:22.801Z,99.30
2019-03-21T01:35:54.191Z,99.40
2019-03-21T01:38:24.472Z,99.30
2019-03-21T01:40:54.621Z,99.20
2019-03-21T01:43:25.825Z,99.10
2019-03-21T01:45:56.089Z,99.10
2019-03-21T01:48:26.434Z,99.10
2019-03-21T01:50:56.658Z,99.10
2019-03-21T01:53:26.957Z,99.00
2019-03-21T01:55:57.328Z,99.20
2019-03-21T01:58:27.452Z,99.10
2019-03-21T02:00:59.741Z,99.10
2019-03-21T02:03:29.951Z,99.00
2019-03-21T02:06:00.534Z,99.00
2019-03-21T02:08:30.994Z,98.90
2019-03-21T02:11:01.619Z,98.90
2019-03-21T02:13:32.131Z,99.00
2019-03-21T02:16:02.576Z,99.10
2019-03-21T02:18:33.520Z,99.10
2019-03-21T02:21:03.944Z,99.30
2019-03-21T02:23:34.495Z,99.20
2019-03-21T02:26:04.982Z,99.00
2019-03-21T02:28:36.571Z,99.00
2019-03-21T02:31:06.952Z,99.10
2019-03-21T02:33:37.676Z,98.90
2019-03-21T02:36:08.173Z,98.70
2019-03-21T02:38:38.520Z,98.60
2019-03-21T02:41:09.341Z,98.70
2019-03-21T02:43:39.893Z,98.70
2019-03-21T02:46:10.803Z,98.80
2019-03-21T02:48:40.998Z,98.80
2019-03-21T02:51:11.339Z,99.10
2019-03-21T02:53:41.493Z,99.60
2019-03-21T02:56:13.449Z,99.40
2019-03-21T02:58:43.673Z,99.30
2019-03-21T03:01:13.886Z,99.40
2019-03-21T03:03:44.048Z,99.50
2019-03-21T03:06:14.511Z,99.70
2019-03-21T03:08:44.719Z,99.70
2019-03-21T03:11:15.975Z,99.70
2019-03-21T03:13:47.864Z,99.80
2019-03-21T03:16:19.544Z,99.90
2019-03-21T03:18:49.928Z,99.90
2019-03-21T03:21:20.087Z,99.90
2019-03-21T03:23:50.471Z,99.90
2019-03-21T03:26:21.098Z,99.90
2019-03-21T03:28:51.404Z,99.90
2019-03-21T03:31:21.606Z,99.90
2019-03-21T03:33:52.313Z,99.90
2019-03-21T03:36:22.472Z,99.90
2019-03-21T03:38:53.365Z,99.90
2019-03-21T03:41:23.944Z,99.90
2019-03-21T03:43:54.649Z,99.90
2019-03-21T03:46:25.325Z,99.90
2019-03-21T03:48:59.740Z,99.90
2019-03-21T03:51:29.838Z,99.90
2019-03-21T03:54:01.564Z,99.90
2019-03-21T03:56:31.922Z,99.90
2019-03-21T03:59:02.526Z,99.90
2019-03-21T04:01:32.634Z,99.90
2019-03-21T04:04:02.948Z,99.90
2019-03-21T04:06:33.321Z,99.90
2019-03-21T04:09:04.886Z,99.90
2019-03-21T04:11:35.105Z,99.90
2019-03-21T04:14:05.380Z,99.90
2019-03-21T04:16:35.520Z,99.90
2019-03-21T04:19:05.870Z,99.90
2019-03-21T04:21:36.169Z,99.90
2019-03-21T04:24:06.569Z,99.90
2019-03-21T04:26:37.348Z,99.90
2019-03-21T04:29:07.647Z,99.90
2019-03-21T04:31:38.024Z,99.90
2019-03-21T04:34:09.307Z,99.90
2019-03-21T04:36:39.560Z,99.90
2019-03-21T04:39:10.636Z,99.90
2019-03-21T04:41:41.979Z,99.90
2019-03-21T04:44:14.246Z,99.90
2019-03-21T04:46:44.523Z,99.90
2019-03-21T04:49:14.809Z,99.90
2019-03-21T04:51:45.299Z,99.90
2019-03-21T04:54:15.885Z,99.90
2019-03-21T04:56:46.232Z,99.90
2019-03-21T04:59:16.600Z,99.90
2019-03-21T05:01:47.074Z,99.90
2019-03-21T05:04:21.502Z,99.90
2019-03-21T05:06:52.237Z,99.90
2019-03-21T05:09:22.631Z,99.90
2019-03-21T05:11:52.935Z,99.90
2019-03-21T05:14:23.204Z,99.90
2019-03-21T05:16:53.511Z,99.90
2019-03-21T05:19:23.865Z,99.90
2019-03-21T05:21:54.151Z,99.90
2019-03-21T05:24:24.512Z,99.90
2019-03-21T05:26:54.796Z,99.90
2019-03-21T05:29:25.120Z,99.90
2019-03-21T05:31:55.455Z,99.90
2019-03-21T05:34:25.799Z,99.90
2019-03-21T05:37:14.648Z,99.90
2019-03-21T05:39:45.175Z,99.90
2019-03-21T05:42:19.620Z,99.90
2019-03-21T05:44:49.838Z,99.90
2019-03-21T05:47:20.188Z,99.90
2019-03-21T05:49:51.611Z,99.90
2019-03-21T05:52:22.115Z,99.90
2019-03-21T05:54:52.547Z,99.90
2019-03-21T05:57:22.868Z,99.90
2019-03-21T05:59:53.213Z,99.90
2019-03-21T06:02:23.562Z,99.90
2019-03-21T06:04:53.895Z,99.90
2019-03-21T06:08:08.502Z,99.90
2019-03-21T06:10:39.968Z,99.90
2019-03-21T06:13:10.404Z,99.90
2019-03-21T06:15:41.041Z,99.90
2019-03-21T06:18:36.260Z,99.90
2019-03-21T06:21:15.705Z,99.90
2019-03-21T06:24:23.467Z,99.90
2019-03-21T06:27:17.787Z,99.90
2019-03-21T06:29:48.181Z,99.90
2019-03-21T06:32:18.706Z,99.80
2019-03-21T06:34:49.084Z,99.60
2019-03-21T06:37:19.260Z,99.80
2019-03-21T06:39:50.437Z,99.80
2019-03-21T06:42:20.727Z,99.70
2019-03-21T06:44:51.051Z,99.70
2019-03-21T06:47:21.421Z,99.70
2019-03-21T06:49:52.105Z,99.80
2019-03-21T06:52:22.556Z,99.90
2019-03-21T06:54:52.747Z,99.70
2019-03-21T06:57:23.157Z,99.40
2019-03-21T06:59:53.442Z,99.20
2019-03-21T07:02:24.685Z,98.80
2019-03-21T07:04:55.043Z,98.70
2019-03-21T07:07:25.303Z,98.60
2019-03-21T07:09:55.622Z,98.50
2019-03-21T07:12:25.991Z,98.40
2019-03-21T07:14:56.143Z,98.20
2019-03-21T07:17:26.494Z,98.00
2019-03-21T07:19:56.850Z,98.10
2019-03-21T07:22:27.133Z,98.00
2019-03-21T07:24:57.506Z,98.00
2019-03-21T07:27:27.681Z,98.00
2019-03-21T07:29:58.036Z,98.00
2019-03-21T07:32:33.301Z,97.90
2019-03-21T07:35:00.409Z,98.20
2019-03-21T07:37:30.670Z,98.00
2019-03-21T07:40:00.966Z,97.80
2019-03-21T07:42:31.348Z,97.80
2019-03-21T07:45:01.620Z,97.60
2019-03-21T07:47:31.912Z,97.40
2019-03-21T07:50:02.290Z,97.40
2019-03-21T07:52:32.613Z,97.30
2019-03-21T07:55:02.873Z,97.10
2019-03-21T07:57:33.425Z,97.10
2019-03-21T08:00:03.899Z,97.10
2019-03-21T08:02:34.053Z,96.90
2019-03-21T08:05:04.930Z,96.80
2019-03-21T08:07:35.126Z,96.90
2019-03-21T08:10:06.157Z,96.60
2019-03-21T08:12:36.415Z,96.40
2019-03-21T08:15:07.761Z,96.20
2019-03-21T08:17:38.089Z,96.00
2019-03-21T08:20:10.764Z,95.80
2019-03-21T08:22:41.021Z,95.80
2019-03-21T08:25:11.537Z,95.40
2019-03-21T08:27:41.811Z,94.90
2019-03-21T08:30:26.965Z,94.60
2019-03-21T08:32:57.081Z,93.60
2019-03-21T08:35:27.180Z,93.60
2019-03-21T08:37:57.352Z,93.60
2019-03-21T08:40:27.642Z,92.90
2019-03-21T08:42:57.767Z,92.30
2019-03-21T08:45:27.892Z,92.10
2019-03-21T08:47:58.231Z,92.40
2019-03-21T08:50:28.499Z,92.40
2019-03-21T08:52:58.794Z,91.30
2019-03-21T08:55:29.072Z,90.60
2019-03-21T08:57:59.252Z,90.70
2019-03-21T09:00:34.202Z,90.20
2019-03-21T09:03:01.471Z,88.90
2019-03-21T09:05:31.723Z,89.30
2019-03-21T09:08:01.897Z,89.60
2019-03-21T09:10:50.817Z,88.10
2019-03-21T09:13:21.063Z,86.00
2019-03-21T09:15:52.396Z,82.90
2019-03-21T09:18:22.691Z,84.70
2019-03-21T09:20:52.777Z,85.00
2019-03-21T09:23:22.908Z,84.10
2019-03-21T09:25:53.121Z,83.00
2019-03-21T09:28:23.568Z,83.30
2019-03-21T09:30:53.664Z,80.80
2019-03-21T09:33:23.846Z,78.70
2019-03-21T09:35:54.157Z,80.10
2019-03-21T09:38:24.457Z,78.60
2019-03-21T09:40:54.604Z,78.20
2019-03-21T09:43:26.910Z,77.60
2019-03-21T09:45:57.107Z,76.20
2019-03-21T09:48:27.409Z,75.70
2019-03-21T09:50:57.731Z,74.20
2019-03-21T09:53:27.843Z,74.60
2019-03-21T09:55:58.140Z,74.40
2019-03-21T09:58:28.258Z,72.80
2019-03-21T10:01:00.258Z,69.90
2019-03-21T10:03:30.392Z,67.30
2019-03-21T10:06:00.781Z,65.10
2019-03-21T10:08:32.144Z,64.70
2019-03-21T10:11:02.228Z,64.00
2019-03-21T10:13:32.401Z,62.30
2019-03-21T10:16:03.518Z,61.30
2019-03-21T10:18:33.670Z,61.20
2019-03-21T10:21:03.999Z,60.80
2019-03-21T10:23:34.182Z,59.30
2019-03-21T10:26:04.407Z,59.20
2019-03-21T10:28:34.635Z,59.30
2019-03-21T10:31:04.735Z,59.20
2019-03-21T10:33:34.837Z,58.90
2019-03-21T10:36:05.097Z,60.10
2019-03-21T10:38:36.994Z,58.80
2019-03-21T10:41:08.371Z,59.20
2019-03-21T10:43:39.807Z,58.70
2019-03-21T10:46:10.142Z,57.60
2019-03-21T10:48:58.948Z,57.90
2019-03-21T10:51:30.979Z,56.70
2019-03-21T10:54:01.120Z,57.50
2019-03-21T10:56:31.296Z,56.80
2019-03-21T10:59:01.539Z,56.50
2019-03-21T11:01:31.794Z,56.60
2019-03-21T11:04:01.998Z,56.10
2019-03-21T11:06:32.110Z,55.60
2019-03-21T11:09:02.255Z,55.20
2019-03-21T11:11:32.368Z,55.30
2019-03-21T11:14:02.511Z,55.50
2019-03-21T11:16:32.688Z,55.60
2019-03-21T11:19:02.806Z,55.70
2019-03-21T11:21:32.933Z,54.70
2019-03-21T11:24:03.174Z,54.50
2019-03-21T11:26:33.315Z,54.80
2019-03-21T11:29:03.492Z,55.00
2019-03-21T11:31:33.607Z,56.10
2019-03-21T11:34:03.771Z,55.30
2019-03-21T11:36:38.604Z,55.90
2019-03-21T11:39:08.896Z,56.00
2019-03-21T11:41:39.039Z,56.10
2019-03-21T11:44:09.145Z,55.80
2019-03-21T11:46:39.330Z,54.90
2019-03-21T11:49:09.474Z,54.80
2019-03-21T11:51:39.589Z,55.10
2019-03-21T11:54:09.718Z,54.60
2019-03-21T11:56:39.972Z,55.30
2019-03-21T11:59:10.294Z,54.10
2019-03-21T12:01:40.619Z,54.00
2019-03-21T12:04:10.815Z,53.40
2019-03-21T12:06:42.404Z,53.60
2019-03-21T12:09:12.691Z,52.90
2019-03-21T12:11:42.812Z,52.80
2019-03-21T12:14:13.073Z,52.40
2019-03-21T12:16:43.371Z,52.10
2019-03-21T12:19:13.491Z,50.90
2019-03-21T12:21:43.728Z,49.60
2019-03-21T12:24:15.187Z,50.70
2019-03-21T12:26:45.546Z,50.70
2019-03-21T12:29:16.714Z,49.00
2019-03-21T12:31:47.980Z,48.70
2019-03-21T12:34:18.238Z,47.90
2019-03-21T12:36:48.501Z,48.20
2019-03-21T12:39:18.621Z,47.40
2019-03-21T12:41:48.738Z,45.70
2019-03-21T12:44:18.921Z,46.30
2019-03-21T12:46:49.215Z,45.20
2019-03-21T12:49:19.511Z,45.30
2019-03-21T12:51:49.625Z,44.60
2019-03-21T12:54:19.962Z,44.00
2019-03-21T12:56:52.873Z,43.80
2019-03-21T12:59:21.985Z,43.00
2019-03-21T13:01:52.239Z,41.90
2019-03-21T13:04:22.493Z,41.50
2019-03-21T13:06:52.632Z,41.60
2019-03-21T13:09:22.960Z,41.50
2019-03-21T13:11:53.240Z,41.00
2019-03-21T13:14:23.375Z,40.60
2019-03-21T13:16:54.488Z,40.80
2019-03-21T13:19:24.628Z,39.50
2019-03-21T13:21:54.744Z,39.00
2019-03-21T13:24:24.876Z,39.20
2019-03-21T13:26:55.001Z,38.90
2019-03-21T13:29:25.306Z,38.40
2019-03-21T13:31:55.609Z,37.00
2019-03-21T13:34:44.449Z,36.50
2019-03-21T13:37:15.525Z,35.90
2019-03-21T13:40:04.484Z,35.40
2019-03-21T13:42:46.065Z,35.70
2019-03-21T13:45:16.248Z,34.20
2019-03-21T13:47:46.525Z,33.50
2019-03-21T13:50:18.961Z,34.00
2019-03-21T13:52:49.231Z,33.20
2019-03-21T13:55:19.338Z,32.80
2019-03-21T13:57:49.473Z,33.50
2019-03-21T14:00:21.336Z,33.20
2019-03-21T14:02:51.603Z,32.90
2019-03-21T14:05:21.871Z,32.50
2019-03-21T14:07:52.015Z,31.70
2019-03-21T14:10:22.115Z,32.30
2019-03-21T14:12:52.271Z,31.50
2019-03-21T14:15:22.657Z,31.40
2019-03-21T14:17:52.993Z,31.80
2019-03-21T14:20:23.213Z,30.60
2019-03-21T14:22:53.329Z,31.50
2019-03-21T14:25:23.779Z,31.10
2019-03-21T14:27:53.867Z,31.20
2019-03-21T14:30:24.003Z,30.60
2019-03-21T14:32:54.139Z,30.40
2019-03-21T14:35:24.205Z,29.90
2019-03-21T14:37:54.483Z,30.70
2019-03-21T14:40:24.571Z,30.40
2019-03-21T14:42:54.808Z,30.10
2019-03-21T14:45:24.915Z,29.90
2019-03-21T14:47:55.018Z,29.90
2019-03-21T14:50:25.170Z,30.50
2019-03-21T14:52:55.279Z,30.10
2019-03-21T14:55:25.382Z,30.90
2019-03-21T14:57:55.491Z,29.80
2019-03-21T15:00:25.673Z,30.00
2019-03-21T15:02:58.632Z,30.40
2019-03-21T15:05:28.788Z,29.60
2019-03-21T15:07:59.084Z,30.20
2019-03-21T15:10:29.170Z,29.30
2019-03-21T15:12:59.341Z,29.10
2019-03-21T15:15:48.165Z,29.80
2019-03-21T15:18:18.460Z,29.10
2019-03-21T15:20:48.722Z,29.30
2019-03-21T15:23:18.938Z,28.70
2019-03-21T15:25:49.168Z,28.60
2019-03-21T15:28:19.595Z,27.90
2019-03-21T15:30:49.717Z,27.90
2019-03-21T15:33:19.841Z,27.60
2019-03-21T15:35:50.039Z,27.60
2019-03-21T15:38:20.211Z,27.50
2019-03-21T15:40:50.460Z,27.20
2019-03-21T15:43:20.615Z,27.80
2019-03-21T15:45:50.698Z,28.70
2019-03-21T15:48:21.166Z,29.70
2019-03-21T15:51:03.533Z,31.00
2019-03-21T15:53:23.531Z,32.20
2019-03-21T15:55:53.675Z,33.30
2019-03-21T15:58:23.756Z,33.90
2019-03-21T16:00:58.443Z,34.80
2019-03-21T16:03:39.505Z,36.10
2019-03-21T16:06:09.774Z,36.40
2019-03-21T16:08:39.908Z,37.20
2019-03-21T16:11:10.063Z,37.30
2019-03-21T16:13:40.168Z,37.90
2019-03-21T16:16:10.273Z,38.60
2019-03-21T16:18:40.452Z,39.40
2019-03-21T16:21:10.720Z,39.90
2019-03-21T16:23:40.830Z,40.30
2019-03-21T16:26:10.972Z,40.70
2019-03-21T16:28:41.073Z,41.20
2019-03-21T16:31:11.226Z,41.30
2019-03-21T16:33:43.432Z,41.90
2019-03-21T16:36:13.085Z,42.50
2019-03-21T16:38:43.221Z,42.40
2019-03-21T16:41:13.339Z,43.20
2019-03-21T16:43:43.533Z,43.30
2019-03-21T16:46:13.751Z,43.80
2019-03-21T16:48:43.913Z,44.10
2019-03-21T16:51:14.030Z,44.60
2019-03-21T16:53:44.151Z,44.90
2019-03-21T16:56:14.352Z,45.20
2019-03-21T16:58:44.480Z,45.90
2019-03-21T17:01:14.586Z,46.70
2019-03-21T17:03:44.704Z,46.50
2019-03-21T17:06:14.856Z,46.80
2019-03-21T17:08:45.035Z,47.00
2019-03-21T17:11:15.175Z,47.30
2019-03-21T17:13:45.289Z,47.50
2019-03-21T17:16:15.527Z,47.50
2019-03-21T17:18:45.652Z,47.80
2019-03-21T17:21:15.786Z,48.20
2019-03-21T17:23:45.904Z,48.50
2019-03-21T17:26:16.142Z,48.80
2019-03-21T17:28:46.280Z,48.50
2019-03-21T17:31:16.431Z,49.40
2019-03-21T17:33:46.558Z,49.30
2019-03-21T17:36:16.700Z,49.70
2019-03-21T17:38:46.921Z,50.10
2019-03-21T17:41:17.413Z,50.60
2019-03-21T17:43:47.620Z,50.90
2019-03-21T17:46:17.769Z,50.90
2019-03-21T17:48:47.878Z,51.70
2019-03-21T17:51:18.132Z,52.40
2019-03-21T17:53:48.240Z,52.80
2019-03-21T17:56:18.357Z,53.20
2019-03-21T17:58:48.674Z,53.00
2019-03-21T18:01:19.163Z,53.30
2019-03-21T18:03:51.200Z,53.40
2019-03-21T18:06:32.316Z,53.90
2019-03-21T18:09:04.453Z,54.40
2019-03-21T18:11:34.890Z,54.10
2019-03-21T18:14:05.284Z,54.40
2019-03-21T18:16:37.230Z,55.00
2019-03-21T18:19:08.611Z,55.30
2019-03-21T18:21:38.939Z,55.70
2019-03-21T18:24:09.335Z,55.80
2019-03-21T18:26:41.023Z,56.10
2019-03-21T18:29:11.560Z,56.80
2019-03-21T18:31:42.110Z,56.90
2019-03-21T18:34:12.357Z,56.80
2019-03-21T18:36:44.692Z,57.40
2019-03-21T18:39:18.376Z,58.00
2019-03-21T18:41:48.927Z,58.90
2019-03-21T18:44:19.168Z,59.20
2019-03-21T18:46:50.457Z,60.00
2019-03-21T18:49:20.902Z,60.30
2019-03-21T18:51:51.375Z,61.30
2019-03-21T18:54:21.678Z,61.60
2019-03-21T18:56:54.491Z,62.40
2019-03-21T18:59:25.884Z,63.90
2019-03-21T19:01:58.950Z,65.00
2019-03-21T19:04:32.839Z,65.50
2019-03-21T19:07:03.377Z,66.50
2019-03-21T19:09:33.811Z,67.20
2019-03-21T19:12:04.097Z,67.60
2019-03-21T19:14:34.348Z,68.60
2019-03-21T19:17:06.888Z,70.00
2019-03-21T19:19:37.167Z,70.60
2019-03-21T19:22:08.912Z,71.10
2019-03-21T19:24:39.169Z,72.90
2019-03-21T19:27:09.458Z,72.90
2019-03-21T19:29:39.604Z,73.20
2019-03-21T19:32:09.800Z,73.80
2019-03-21T19:34:39.932Z,75.50
2019-03-21T19:37:10.139Z,76.10
2019-03-21T19:39:40.356Z,76.80
2019-03-21T19:42:10.522Z,77.00
2019-03-21T19:44:41.417Z,78.30
2019-03-21T19:47:22.782Z,78.50
2019-03-21T19:49:43.496Z,78.20
2019-03-21T19:52:13.627Z,79.00
2019-03-21T19:54:43.816Z,79.70
2019-03-21T19:57:14.277Z,80.40
2019-03-21T19:59:44.489Z,81.30
2019-03-21T20:02:15.680Z,81.70
2019-03-21T20:04:48.282Z,82.30
2019-03-21T20:07:17.902Z,82.20
2019-03-21T20:09:48.134Z,82.20
2019-03-21T20:12:18.357Z,82.70
2019-03-21T20:14:48.495Z,83.40
2019-03-21T20:17:22.065Z,83.80
2019-03-21T20:19:53.353Z,85.10
2019-03-21T20:22:23.986Z,85.10
2019-03-21T20:24:54.308Z,84.30
2019-03-21T20:27:24.431Z,84.50
2019-03-21T20:29:55.839Z,84.80
2019-03-21T20:32:27.348Z,85.30
2019-03-21T20:34:57.423Z,85.20
2019-03-21T20:37:27.857Z,85.80
2019-03-21T20:39:58.143Z,85.90
2019-03-21T20:42:28.433Z,86.20
2019-03-21T20:44:58.800Z,87.20
2019-03-21T20:47:29.669Z,87.30
2019-03-21T20:50:00.065Z,88.20
2019-03-21T20:52:30.338Z,88.30
2019-03-21T20:55:00.522Z,88.60
2019-03-21T20:57:30.535Z,90.00
2019-03-21T21:00:00.701Z,89.50
2019-03-21T21:02:30.908Z,89.70
2019-03-21T21:05:01.301Z,89.80
2019-03-21T21:07:31.486Z,90.00
2019-03-21T21:10:02.111Z,90.00
2019-03-21T21:12:32.481Z,90.20
2019-03-21T21:15:02.665Z,90.60
2019-03-21T21:17:32.976Z,90.50
2019-03-21T21:20:03.292Z,90.70
2019-03-21T21:22:33.386Z,90.70
2019-03-21T21:25:03.952Z,90.90
2019-03-21T21:27:34.259Z,90.90
2019-03-21T21:30:05.733Z,90.60
2019-03-21T21:32:36.144Z,90.80
2019-03-21T21:35:07.821Z,91.10
2019-03-21T21:37:38.789Z,91.10
2019-03-21T21:40:09.851Z,91.30
2019-03-21T21:42:39.967Z,91.10
2019-03-21T21:45:10.557Z,91.10
2019-03-21T21:47:40.873Z,91.10
2019-03-21T21:50:11.791Z,91.30
2019-03-21T21:52:42.511Z,91.30
2019-03-21T21:55:13.041Z,91.50
2019-03-21T21:57:43.256Z,91.50
2019-03-21T22:00:15.657Z,91.80
2019-03-21T22:02:45.920Z,91.70
2019-03-21T22:05:16.189Z,91.80
2019-03-21T22:07:46.791Z,92.10
2019-03-21T22:10:17.047Z,92.10
2019-03-21T22:12:47.239Z,92.50
2019-03-21T22:15:18.143Z,92.50
2019-03-21T22:17:48.556Z,92.50
2019-03-21T22:20:18.955Z,93.10
2019-03-21T22:22:49.255Z,92.90
2019-03-21T22:25:19.374Z,92.90
2019-03-21T22:27:49.534Z,93.50
2019-03-21T22:30:20.208Z,93.20
2019-03-21T22:32:50.483Z,93.10
2019-03-21T22:35:23.748Z,93.00
2019-03-21T22:37:53.853Z,93.50
2019-03-21T22:40:24.008Z,93.40
2019-03-21T22:42:54.154Z,93.30
2019-03-21T22:45:24.453Z,93.40
2019-03-21T22:47:54.608Z,93.50
2019-03-21T22:50:24.914Z,93.40
2019-03-21T22:52:55.307Z,93.70
2019-03-21T22:55:25.544Z,93.50
2019-03-21T22:57:55.648Z,93.80
2019-03-21T23:00:34.868Z,93.80
2019-03-21T23:03:05.325Z,93.70
2019-03-21T23:05:35.423Z,94.10
2019-03-21T23:08:05.608Z,93.80
2019-03-21T23:10:35.963Z,94.30
2019-03-21T23:13:06.218Z,94.10
2019-03-21T23:15:36.327Z,94.60
2019-03-21T23:18:06.759Z,94.10
2019-03-21T23:20:36.999Z,94.30
2019-03-21T23:23:07.315Z,94.40
2019-03-21T23:25:37.400Z,94.70
2019-03-21T23:28:07.559Z,94.60
2019-03-21T23:30:37.849Z,94.50
2019-03-21T23:33:09.021Z,95.00
2019-03-21T23:35:39.147Z,94.90
2019-03-21T23:38:09.439Z,94.90
2019-03-21T23:40:39.643Z,95.00
2019-03-21T23:43:09.867Z,94.90
2019-03-21T23:45:39.993Z,95.00
2019-03-21T23:48:10.185Z,95.20
2019-03-21T23:50:40.556Z,95.10
2019-03-21T23:53:10.760Z,95.20
2019-03-21T23:55:40.932Z,95.40
2019-03-21T23:58:11.202Z,95.20
